Time;durP1;ratioP1;P1;durP2;ratioP2;P2;SDS_P1;SDS_P2;PMS_P1;PMS_P2;Temp;Humidity;BMP_temperature;BMP_pressure;BME280_temperature;BME280_humidity;BME280_pressure;Samples;Min_cycle;Max_cycle;Signal;HPM_P1;HPM_P2
2024/01/16 00:00:31;;;;;;;3.42;2.00;;;;;;;;;;4977374;28;20027;-80
2024/01/16 00:02:57;;;;;;;4.03;1.88;;;;;;;;;;4977245;28;20031;-79
2024/01/16 00:05:22;;;;;;;3.63;2.00;;;;;;;;;;4976114;28;20027;-81
2024/01/16 00:07:48;;;;;;;5.03;1.75;;;;;;;;;;4976837;28;20449;-80
2024/01/16 00:10:13;;;;;;;3.53;1.90;;;;;;;;;;4989047;28;20043;-81
2024/01/16 00:12:40;;;;;;;3.58;1.75;;;;;;;;;;4963251;28;20031;-81
2024/01/16 00:15:06;;;;;;;5.28;2.00;;;;;;;;;;4963369;28;20042;-80
2024/01/16 00:17:32;;;;;;;5.20;1.90;;;;;;;;;;4978917;28;20027;-82
2024/01/16 00:20:00;;;;;;;3.78;1.85;;;;;;;;;;4964711;28;20105;-81
2024/01/16 00:22:29;;;;;;;3.95;1.73;;;;;;;;;;4981115;28;20031;-81
2024/01/16 00:24:55;;;;;;;3.13;1.88;;;;;;;;;;4982070;28;20031;-80
2024/01/16 00:27:20;;;;;;;3.58;2.05;;;;;;;;;;4981679;28;20065;-80
2024/01/16 00:29:46;;;;;;;3.55;1.80;;;;;;;;;;4980881;28;20530;-82
2024/01/16 00:32:15;;;;;;;3.45;1.88;;;;;;;;;;4977965;28;20106;-81
2024/01/16 00:34:42;;;;;;;5.15;2.20;;;;;;;;;;4980838;28;20113;-82
2024/01/16 00:37:07;;;;;;;3.83;1.85;;;;;;;;;;4980352;28;20089;-80
2024/01/16 00:39:33;;;;;;;4.45;1.80;;;;;;;;;;4962496;28;20429;-82
2024/01/16 00:41:58;;;;;;;3.60;2.08;;;;;;;;;;4963726;28;20038;-79
2024/01/16 00:44:24;;;;;;;4.53;2.00;;;;;;;;;;4981491;28;20051;-80
2024/01/16 00:46:50;;;;;;;3.05;1.90;;;;;;;;;;4976501;28;20113;-80
2024/01/16 00:49:15;;;;;;;3.83;1.83;;;;;;;;;;4981333;28;20247;-80
2024/01/16 00:51:40;;;;;;;3.53;1.75;;;;;;;;;;4981926;28;20026;-81
2024/01/16 00:54:07;;;;;;;4.07;2.13;;;;;;;;;;4981562;28;20394;-81
2024/01/16 00:56:35;;;;;;;4.88;1.63;;;;;;;;;;4981075;28;20421;-80
2024/01/16 00:59:01;;;;;;;5.07;2.30;;;;;;;;;;4961078;28;20482;-81
2024/01/16 01:01:27;;;;;;;3.22;1.85;;;;;;;;;;4963080;28;20058;-80
2024/01/16 01:03:52;;;;;;;3.85;1.90;;;;;;;;;;4980485;28;20046;-81
2024/01/16 01:06:18;;;;;;;4.95;2.20;;;;;;;;;;4961902;28;20103;-81
2024/01/16 01:08:44;;;;;;;3.45;1.88;;;;;;;;;;4981091;28;20034;-81
2024/01/16 01:11:09;;;;;;;3.60;2.00;;;;;;;;;;4980426;28;20394;-80
2024/01/16 01:13:34;;;;;;;3.40;2.13;;;;;;;;;;4962197;28;20093;-80
2024/01/16 01:16:00;;;;;;;4.90;1.75;;;;;;;;;;4963374;28;20481;-81
2024/01/16 01:18:26;;;;;;;2.72;1.70;;;;;;;;;;4979060;28;20126;-80
2024/01/16 01:20:51;;;;;;;3.22;1.80;;;;;;;;;;4956271;28;20400;-79
2024/01/16 01:23:17;;;;;;;3.22;1.92;;;;;;;;;;4975890;28;20474;-80
2024/01/16 01:25:42;;;;;;;3.03;1.90;;;;;;;;;;4975254;28;20022;-80
2024/01/16 01:28:08;;;;;;;3.90;1.80;;;;;;;;;;4973787;28;20168;-79
2024/01/16 01:30:34;;;;;;;4.07;1.80;;;;;;;;;;4988831;28;20065;-80
2024/01/16 01:32:59;;;;;;;5.70;1.67;;;;;;;;;;4962729;28;20051;-80
2024/01/16 01:35:25;;;;;;;2.50;1.55;;;;;;;;;;4963107;28;20030;-81
2024/01/16 01:37:50;;;;;;;3.25;1.80;;;;;;;;;;4962073;28;20511;-81
2024/01/16 01:40:16;;;;;;;2.80;1.83;;;;;;;;;;4962277;28;20054;-81
2024/01/16 01:42:42;;;;;;;2.80;1.58;;;;;;;;;;4979533;28;20117;-81
2024/01/16 01:45:10;;;;;;;2.55;1.52;;;;;;;;;;4980045;28;20069;-79
2024/01/16 01:47:37;;;;;;;3.10;1.52;;;;;;;;;;4961424;28;20039;-81
2024/01/16 01:50:03;;;;;;;3.67;1.67;;;;;;;;;;4979644;28;20064;-81
2024/01/16 01:52:31;;;;;;;2.55;1.60;;;;;;;;;;4978912;28;20404;-80
2024/01/16 01:54:57;;;;;;;3.20;1.73;;;;;;;;;;4968803;28;20038;-80
2024/01/16 01:57:23;;;;;;;4.70;1.65;;;;;;;;;;4978845;28;20046;-80
2024/01/16 01:59:49;;;;;;;2.65;1.70;;;;;;;;;;4979290;28;20043;-81
2024/01/16 02:02:18;;;;;;;2.22;1.50;;;;;;;;;;4959199;28;20058;-80
2024/01/16 02:04:46;;;;;;;3.30;1.70;;;;;;;;;;4978668;28;20030;-81
2024/01/16 02:07:12;;;;;;;3.33;1.52;;;;;;;;;;4960354;28;20404;-80
2024/01/16 02:09:38;;;;;;;4.78;1.55;;;;;;;;;;4960750;28;20035;-81
2024/01/16 02:12:04;;;;;;;3.47;1.70;;;;;;;;;;4961645;28;20050;-80
2024/01/16 02:14:30;;;;;;;3.17;1.70;;;;;;;;;;4960029;28;20039;-80
2024/01/16 02:16:55;;;;;;;3.03;1.77;;;;;;;;;;4979361;28;20065;-80
2024/01/16 02:19:21;;;;;;;3.03;1.90;;;;;;;;;;4978715;28;20043;-80
2024/01/16 02:21:51;;;;;;;3.85;1.50;;;;;;;;;;4960446;28;20027;-81
2024/01/16 02:24:18;;;;;;;5.13;1.70;;;;;;;;;;4977423;28;20034;-81
2024/01/16 02:26:44;;;;;;;3.90;1.80;;;;;;;;;;4977255;28;20035;-80
2024/01/16 02:29:09;;;;;;;3.13;1.80;;;;;;;;;;4959406;28;20050;-80
2024/01/16 02:31:35;;;;;;;5.28;2.00;;;;;;;;;;4977454;28;20034;-81
2024/01/16 02:34:01;;;;;;;4.82;1.67;;;;;;;;;;4977135;28;20035;-81
2024/01/16 02:36:29;;;;;;;3.15;1.70;;;;;;;;;;4976036;28;20039;-81
2024/01/16 02:38:54;;;;;;;5.30;2.00;;;;;;;;;;4958383;28;20073;-81
2024/01/16 02:41:20;;;;;;;3.50;1.88;;;;;;;;;;4975611;28;20102;-80
2024/01/16 02:43:46;;;;;;;3.42;1.80;;;;;;;;;;4975152;28;20030;-80
2024/01/16 02:46:12;;;;;;;3.47;1.90;;;;;;;;;;4973411;28;20381;-79
2024/01/16 02:48:38;;;;;;;4.28;1.70;;;;;;;;;;4955055;28;20031;-82
2024/01/16 02:51:04;;;;;;;4.18;2.00;;;;;;;;;;4986707;28;20102;-80
2024/01/16 02:53:31;;;;;;;4.85;2.10;;;;;;;;;;4978034;28;20118;-80
2024/01/16 02:55:59;;;;;;;4.55;1.92;;;;;;;;;;4977592;28;20424;-80
2024/01/16 02:58:26;;;;;;;5.15;2.33;;;;;;;;;;4960460;28;20070;-82
2024/01/16 03:00:52;;;;;;;4.65;2.50;;;;;;;;;;4959143;28;20093;-82
2024/01/16 03:03:18;;;;;;;5.97;2.28;;;;;;;;;;4960961;28;20042;-82
2024/01/16 03:05:44;;;;;;;6.10;2.50;;;;;;;;;;4979354;28;20497;-82
2024/01/16 03:08:10;;;;;;;4.50;2.03;;;;;;;;;;4959833;28;20046;-81
2024/01/16 03:10:35;;;;;;;4.57;1.92;;;;;;;;;;4978124;28;20034;-81
2024/01/16 03:13:01;;;;;;;5.32;2.17;;;;;;;;;;4977257;28;20054;-81
2024/01/16 03:15:27;;;;;;;5.53;2.28;;;;;;;;;;4978134;28;20038;-81
2024/01/16 03:17:52;;;;;;;3.50;2.00;;;;;;;;;;4978169;28;20058;-80
2024/01/16 03:20:18;;;;;;;3.35;1.90;;;;;;;;;;4978138;28;20038;-82
2024/01/16 03:22:44;;;;;;;4.38;2.17;;;;;;;;;;4958470;28;20034;-82
2024/01/16 03:25:10;;;;;;;4.00;2.03;;;;;;;;;;4959557;28;20027;-81
2024/01/16 03:27:36;;;;;;;4.15;1.85;;;;;;;;;;4978532;28;20039;-81
2024/01/16 03:30:02;;;;;;;4.55;1.83;;;;;;;;;;4980894;28;20096;-82
2024/01/16 03:32:28;;;;;;;4.05;2.28;;;;;;;;;;4981699;28;20041;-80
2024/01/16 03:34:53;;;;;;;4.00;1.80;;;;;;;;;;4982108;28;20392;-82
2024/01/16 03:37:19;;;;;;;4.47;1.90;;;;;;;;;;4980537;28;20042;-82
2024/01/16 03:39:45;;;;;;;4.15;1.70;;;;;;;;;;4981109;28;20045;-81
2024/01/16 03:42:12;;;;;;;3.88;1.88;;;;;;;;;;4979755;28;20039;-82
2024/01/16 03:44:40;;;;;;;3.58;1.83;;;;;;;;;;4979350;28;20440;-81
2024/01/16 03:47:06;;;;;;;4.47;1.80;;;;;;;;;;4960997;28;20418;-81
2024/01/16 03:49:32;;;;;;;3.40;1.67;;;;;;;;;;4979451;28;20031;-80
2024/01/16 03:51:57;;;;;;;3.75;1.65;;;;;;;;;;4980060;28;20496;-80
2024/01/16 03:54:22;;;;;;;3.83;1.58;;;;;;;;;;4979779;28;20043;-80
2024/01/16 03:56:48;;;;;;;3.10;1.52;;;;;;;;;;4978574;28;20089;-80
2024/01/16 03:59:13;;;;;;;3.38;1.40;;;;;;;;;;4960401;28;20093;-80
2024/01/16 04:01:39;;;;;;;3.10;1.48;;;;;;;;;;4960322;28;20580;-80
2024/01/16 04:04:07;;;;;;;3.47;1.60;;;;;;;;;;4956516;28;20031;-80
2024/01/16 04:06:33;;;;;;;3.30;1.50;;;;;;;;;;4956264;28;20054;-78
2024/01/16 04:08:58;;;;;;;2.70;1.42;;;;;;;;;;4975726;28;20049;-81
2024/01/16 04:11:24;;;;;;;2.78;1.30;;;;;;;;;;4987066;28;20029;-80
2024/01/16 04:13:49;;;;;;;2.38;1.38;;;;;;;;;;4980748;28;20118;-80
2024/01/16 04:16:15;;;;;;;3.72;1.30;;;;;;;;;;4980298;28;20031;-79
2024/01/16 04:18:43;;;;;;;3.72;1.77;;;;;;;;;;4979482;28;20050;-81
2024/01/16 04:21:08;;;;;;;2.33;1.40;;;;;;;;;;4980534;28;20058;-80
2024/01/16 04:23:34;;;;;;;2.28;1.35;;;;;;;;;;4980730;28;20042;-81
2024/01/16 04:26:00;;;;;;;2.50;1.38;;;;;;;;;;4980908;28;20034;-80
2024/01/16 04:28:26;;;;;;;3.58;1.38;;;;;;;;;;4980197;28;20046;-81
2024/01/16 04:30:52;;;;;;;3.95;1.30;;;;;;;;;;4980651;28;20035;-82
2024/01/16 04:33:17;;;;;;;2.17;1.35;;;;;;;;;;4980040;28;20041;-83
2024/01/16 04:35:43;;;;;;;2.55;1.40;;;;;;;;;;4980236;28;20037;-80
2024/01/16 04:38:08;;;;;;;2.88;1.35;;;;;;;;;;4980450;28;20043;-82
2024/01/16 04:40:34;;;;;;;4.90;1.83;;;;;;;;;;4979859;28;20038;-79
2024/01/16 04:43:00;;;;;;;3.35;1.70;;;;;;;;;;4962753;28;20062;-79
2024/01/16 04:45:25;;;;;;;4.70;2.20;;;;;;;;;;4980156;28;20540;-81
2024/01/16 04:47:51;;;;;;;3.42;1.70;;;;;;;;;;4981092;28;20053;-82
2024/01/16 04:50:16;;;;;;;3.90;1.80;;;;;;;;;;4963616;28;20043;-81
2024/01/16 04:52:43;;;;;;;3.60;1.70;;;;;;;;;;4963113;28;20480;-82
2024/01/16 04:55:08;;;;;;;3.47;1.70;;;;;;;;;;4978553;28;20086;-81
2024/01/16 04:57:34;;;;;;;2.95;1.50;;;;;;;;;;4979895;28;20499;-81
2024/01/16 04:59:59;;;;;;;2.90;1.40;;;;;;;;;;4980886;28;20042;-81
2024/01/16 05:02:25;;;;;;;3.22;1.48;;;;;;;;;;4980030;28;20496;-80
2024/01/16 05:04:51;;;;;;;3.45;1.60;;;;;;;;;;4960972;28;20031;-81
2024/01/16 05:07:23;;;;;;;3.33;1.73;;;;;;;;;;4978642;28;20038;-80
2024/01/16 05:09:49;;;;;;;3.92;2.05;;;;;;;;;;4960844;28;20038;-81
2024/01/16 05:12:14;;;;;;;3.40;1.52;;;;;;;;;;4980106;28;20032;-81
2024/01/16 05:14:40;;;;;;;3.28;1.38;;;;;;;;;;4980651;28;20493;-81
2024/01/16 05:17:06;;;;;;;3.08;1.58;;;;;;;;;;4978502;28;20069;-79
2024/01/16 05:19:32;;;;;;;2.50;1.38;;;;;;;;;;4960320;28;20039;-79
2024/01/16 05:21:57;;;;;;;2.25;1.40;;;;;;;;;;4961709;28;20038;-81
2024/01/16 05:24:23;;;;;;;5.05;1.40;;;;;;;;;;4960042;28;20539;-81
2024/01/16 05:26:48;;;;;;;3.30;1.70;;;;;;;;;;4968408;28;20054;-80
2024/01/16 05:29:14;;;;;;;2.78;1.50;;;;;;;;;;4954782;28;20489;-80
2024/01/16 05:31:42;;;;;;;3.83;1.60;;;;;;;;;;4964385;28;20111;-82
2024/01/16 05:34:09;;;;;;;3.92;1.85;;;;;;;;;;4974329;28;20039;-80
2024/01/16 05:36:34;;;;;;;4.55;1.88;;;;;;;;;;4980098;28;20023;-81
2024/01/16 05:39:00;;;;;;;3.72;1.67;;;;;;;;;;4958463;28;20417;-80
2024/01/16 05:41:26;;;;;;;2.47;1.40;;;;;;;;;;4962229;28;20039;-80
2024/01/16 05:43:52;;;;;;;5.18;1.73;;;;;;;;;;4962011;28;20030;-80
2024/01/16 05:46:18;;;;;;;3.88;1.63;;;;;;;;;;4979338;28;20085;-81
2024/01/16 05:48:43;;;;;;;4.57;1.70;;;;;;;;;;4959669;28;20046;-81
2024/01/16 05:51:09;;;;;;;5.38;2.20;;;;;;;;;;4960177;28;20039;-81
2024/01/16 05:53:35;;;;;;;4.68;2.20;;;;;;;;;;4978287;28;20603;-81
2024/01/16 05:56:00;;;;;;;4.28;1.98;;;;;;;;;;4980230;28;20035;-81
2024/01/16 05:58:26;;;;;;;3.45;1.85;;;;;;;;;;4979883;28;20688;-81
2024/01/16 06:00:52;;;;;;;2.90;1.50;;;;;;;;;;4961893;28;20050;-81
2024/01/16 06:03:17;;;;;;;3.75;1.70;;;;;;;;;;4979750;28;20043;-81
2024/01/16 06:05:43;;;;;;;3.42;1.35;;;;;;;;;;4967744;28;20026;-81
2024/01/16 06:08:08;;;;;;;2.17;1.33;;;;;;;;;;4979412;28;20507;-81
2024/01/16 06:10:34;;;;;;;2.33;1.20;;;;;;;;;;4979329;28;20069;-82
2024/01/16 06:12:59;;;;;;;2.88;1.20;;;;;;;;;;4979020;28;20031;-80
2024/01/16 06:15:25;;;;;;;2.72;1.30;;;;;;;;;;4958938;28;20098;-81
2024/01/16 06:17:50;;;;;;;2.72;1.30;;;;;;;;;;4978962;28;20047;-81
2024/01/16 06:20:16;;;;;;;4.30;1.58;;;;;;;;;;4979165;28;20053;-82
2024/01/16 06:22:41;;;;;;;3.13;1.40;;;;;;;;;;4978157;28;20042;-81
2024/01/16 06:25:07;;;;;;;2.95;1.45;;;;;;;;;;4978976;28;20074;-81
2024/01/16 06:27:32;;;;;;;2.38;1.20;;;;;;;;;;4978846;28;20039;-82
2024/01/16 06:29:58;;;;;;;3.03;1.30;;;;;;;;;;4969450;28;20042;-81
2024/01/16 06:32:24;;;;;;;1.67;1.20;;;;;;;;;;4961001;28;20042;-81
2024/01/16 06:34:49;;;;;;;3.58;1.38;;;;;;;;;;4996981;23;20042;-85
2024/01/16 06:37:14;;;;;;;2.78;1.27;;;;;;;;;;4990024;28;20520;-85
2024/01/16 06:39:40;;;;;;;3.40;1.25;;;;;;;;;;4987320;28;20113;-83
2024/01/16 06:42:06;;;;;;;2.47;1.27;;;;;;;;;;4993210;28;20037;-82
2024/01/16 06:44:31;;;;;;;2.33;1.25;;;;;;;;;;4977011;28;20496;-84
2024/01/16 06:46:57;;;;;;;3.17;1.35;;;;;;;;;;4961931;28;20587;-84
2024/01/16 06:49:22;;;;;;;2.83;1.50;;;;;;;;;;4967217;28;20030;-83
2024/01/16 06:51:48;;;;;;;3.35;1.80;;;;;;;;;;4986572;28;20027;-84
2024/01/16 06:54:13;;;;;;;9.55;4.30;;;;;;;;;;4967439;28;20051;-84
2024/01/16 06:56:39;;;;;;;14.07;6.88;;;;;;;;;;4984315;28;20027;-84
2024/01/16 06:59:04;;;;;;;15.73;7.07;;;;;;;;;;4963715;28;20470;-85
2024/01/16 07:01:30;;;;;;;12.43;6.10;;;;;;;;;;4982860;28;20042;-83
2024/01/16 07:03:56;;;;;;;11.18;5.05;;;;;;;;;;4967402;28;20049;-84
2024/01/16 07:06:21;;;;;;;22.52;11.05;;;;;;;;;;4981988;28;20027;-85
2024/01/16 07:08:47;;;;;;;20.23;9.38;;;;;;;;;;4993420;28;20027;-85
2024/01/16 07:11:13;;;;;;;14.20;6.53;;;;;;;;;;4972215;28;20096;-84
2024/01/16 07:13:43;;;;;;;7.80;4.38;;;;;;;;;;4967320;28;20035;-84
2024/01/16 07:16:10;;;;;;;8.52;3.92;;;;;;;;;;4986710;28;20102;-85
2024/01/16 07:18:37;;;;;;;8.63;3.60;;;;;;;;;;4973766;28;20074;-85
2024/01/16 07:21:03;;;;;;;9.82;4.65;;;;;;;;;;4976952;28;20034;-83
2024/01/16 07:23:29;;;;;;;9.10;3.88;;;;;;;;;;4982891;28;20215;-83
2024/01/16 07:25:55;;;;;;;7.80;3.63;;;;;;;;;;4983075;28;20066;-83
2024/01/16 07:28:22;;;;;;;8.30;3.28;;;;;;;;;;4976396;28;20085;-84
2024/01/16 07:30:48;;;;;;;6.82;3.20;;;;;;;;;;4991252;28;20046;-83
2024/01/16 07:33:13;;;;;;;7.53;2.88;;;;;;;;;;4964936;28;20089;-85
2024/01/16 07:35:41;;;;;;;6.60;2.83;;;;;;;;;;4982949;28;20062;-83
2024/01/16 07:38:06;;;;;;;5.85;2.67;;;;;;;;;;4986079;28;20043;-83
2024/01/16 07:40:32;;;;;;;10.82;3.72;;;;;;;;;;4975734;28;20132;-83
2024/01/16 07:42:57;;;;;;;6.65;2.90;;;;;;;;;;4969488;28;20113;-84
2024/01/16 07:45:24;;;;;;;6.30;2.40;;;;;;;;;;4984408;28;20038;-85
2024/01/16 07:47:49;;;;;;;5.93;2.85;;;;;;;;;;4984794;28;20117;-88
2024/01/16 07:50:15;;;;;;;5.65;2.97;;;;;;;;;;4982529;28;20518;-84
2024/01/16 07:52:41;;;;;;;7.63;3.10;;;;;;;;;;4991541;28;20113;-87
2024/01/16 07:55:07;;;;;;;4.70;2.40;;;;;;;;;;4979664;28;20058;-86
2024/01/16 07:57:32;;;;;;;4.65;2.60;;;;;;;;;;4972216;28;20031;-88
2024/01/16 07:59:58;;;;;;;5.05;2.60;;;;;;;;;;4986366;28;20185;-88
2024/01/16 08:02:32;;;;;;;7.20;2.78;;;;;;;;;;4981337;28;20035;-86
2024/01/16 08:04:57;;;;;;;5.45;2.42;;;;;;;;;;4979455;28;20069;-84
2024/01/16 08:07:23;;;;;;;5.57;2.60;;;;;;;;;;4981378;28;20046;-86
2024/01/16 08:09:48;;;;;;;5.70;2.90;;;;;;;;;;4982919;28;20027;-85
2024/01/16 08:12:14;;;;;;;9.65;2.95;;;;;;;;;;4969641;28;20989;-86
2024/01/16 08:14:39;;;;;;;6.80;3.15;;;;;;;;;;4985172;28;20037;-86
2024/01/16 08:17:05;;;;;;;7.03;3.50;;;;;;;;;;4968140;28;20512;-87
2024/01/16 08:19:30;;;;;;;7.32;3.25;;;;;;;;;;4979023;28;20116;-85
2024/01/16 08:21:56;;;;;;;6.07;2.90;;;;;;;;;;4983134;28;20038;-86
2024/01/16 08:24:22;;;;;;;6.63;2.95;;;;;;;;;;4971867;28;20073;-86
2024/01/16 08:26:48;;;;;;;5.70;2.70;;;;;;;;;;4972849;28;20073;-85
2024/01/16 08:29:13;;;;;;;7.22;3.13;;;;;;;;;;4985763;28;20066;-87
2024/01/16 08:31:39;;;;;;;12.85;5.75;;;;;;;;;;4967872;28;20042;-86
2024/01/16 08:34:04;;;;;;;5.50;2.92;;;;;;;;;;4983446;28;20082;-88
2024/01/16 08:36:30;;;;;;;7.38;3.33;;;;;;;;;;4980580;28;20026;-85
2024/01/16 08:38:55;;;;;;;8.27;3.40;;;;;;;;;;4986782;28;20420;-85
2024/01/16 08:41:21;;;;;;;8.85;3.85;;;;;;;;;;4972848;28;20582;-85
2024/01/16 08:43:46;;;;;;;5.57;3.28;;;;;;;;;;4970017;28;20033;-86
2024/01/16 08:46:12;;;;;;;9.07;3.80;;;;;;;;;;4979879;28;20031;-84
2024/01/16 08:48:38;;;;;;;6.88;2.95;;;;;;;;;;4985216;28;20090;-87
2024/01/16 08:51:08;;;;;;;7.55;3.10;;;;;;;;;;4978840;28;20038;-84
2024/01/16 08:53:34;;;;;;;6.95;2.83;;;;;;;;;;4980094;28;20043;-84
2024/01/16 08:56:00;;;;;;;5.47;2.70;;;;;;;;;;4974811;28;20022;-82
2024/01/16 08:58:26;;;;;;;6.88;3.20;;;;;;;;;;4979821;28;20096;-82
2024/01/16 09:00:52;;;;;;;5.13;2.90;;;;;;;;;;4987456;28;20030;-84
2024/01/16 09:03:18;;;;;;;6.03;3.10;;;;;;;;;;4984995;28;20081;-83
2024/01/16 09:05:43;;;;;;;5.53;2.75;;;;;;;;;;4965627;28;20050;-82
2024/01/16 09:08:09;;;;;;;6.78;3.00;;;;;;;;;;4983177;28;20062;-83
2024/01/16 09:10:34;;;;;;;4.72;2.70;;;;;;;;;;4981324;28;20027;-84
2024/01/16 09:13:00;;;;;;;5.55;3.00;;;;;;;;;;4976527;28;20035;-82
2024/01/16 09:15:25;;;;;;;5.60;3.25;;;;;;;;;;4971523;28;20481;-82
2024/01/16 09:17:51;;;;;;;5.75;3.22;;;;;;;;;;4985571;28;20030;-84
2024/01/16 09:20:17;;;;;;;6.75;3.05;;;;;;;;;;4977488;28;20030;-82
2024/01/16 09:22:42;;;;;;;5.97;3.17;;;;;;;;;;4965710;28;20127;-83
2024/01/16 09:25:08;;;;;;;6.40;3.25;;;;;;;;;;4978066;28;20113;-84
2024/01/16 09:27:33;;;;;;;5.57;3.10;;;;;;;;;;4978042;28;20085;-84
2024/01/16 09:29:59;;;;;;;6.40;3.25;;;;;;;;;;4984290;28;20102;-82
2024/01/16 09:32:25;;;;;;;6.88;3.55;;;;;;;;;;4977853;28;20466;-83
2024/01/16 09:34:50;;;;;;;8.93;3.60;;;;;;;;;;4977467;28;20126;-83
2024/01/16 09:37:16;;;;;;;6.03;3.42;;;;;;;;;;4971044;28;20054;-85
2024/01/16 09:39:42;;;;;;;7.55;3.40;;;;;;;;;;4969676;28;20043;-84
2024/01/16 09:42:08;;;;;;;6.35;3.15;;;;;;;;;;4980024;28;20520;-83
2024/01/16 09:44:34;;;;;;;7.47;3.00;;;;;;;;;;4958178;28;20041;-85
2024/01/16 09:47:04;;;;;;;4.45;2.63;;;;;;;;;;4980872;28;20038;-87
2024/01/16 09:49:30;;;;;;;4.70;2.67;;;;;;;;;;4960814;28;20079;-84
2024/01/16 09:51:59;;;;;;;6.22;2.70;;;;;;;;;;4985782;28;20066;-85
2024/01/16 09:54:26;;;;;;;4.70;2.90;;;;;;;;;;4962231;28;20046;-83
2024/01/16 09:56:57;;;;;;;7.32;3.92;;;;;;;;;;4979220;28;20077;-82
2024/01/16 09:59:24;;;;;;;5.60;3.40;;;;;;;;;;4977282;28;20046;-81
2024/01/16 10:01:53;;;;;;;5.10;3.00;;;;;;;;;;4967749;28;20496;-82
2024/01/16 10:04:18;;;;;;;6.35;3.40;;;;;;;;;;4981023;28;20050;-83
2024/01/16 10:06:48;;;;;;;6.18;2.97;;;;;;;;;;4981431;28;20031;-83
2024/01/16 10:09:15;;;;;;;4.65;2.38;;;;;;;;;;4981084;28;20034;-84
2024/01/16 10:11:41;;;;;;;5.72;2.58;;;;;;;;;;4986605;28;20046;-83
2024/01/16 10:14:07;;;;;;;5.78;2.47;;;;;;;;;;4967823;28;20121;-83
2024/01/16 10:16:56;;;;;;;9.40;3.20;;;;;;;;;;4984802;28;20054;-83
2024/01/16 10:19:21;;;;;;;5.78;3.22;;;;;;;;;;4966242;28;20042;-84
2024/01/16 10:21:47;;;;;;;8.13;3.80;;;;;;;;;;4982905;28;20137;-82
2024/01/16 10:24:13;;;;;;;7.63;3.30;;;;;;;;;;4981180;28;20038;-84
2024/01/16 10:26:38;;;;;;;4.78;2.40;;;;;;;;;;4962159;28;20035;-84
2024/01/16 10:29:08;;;;;;;5.25;2.47;;;;;;;;;;4965687;28;20041;-83
2024/01/16 10:31:33;;;;;;;4.28;2.42;;;;;;;;;;4956918;28;20031;-85
2024/01/16 10:33:59;;;;;;;4.45;2.50;;;;;;;;;;4985823;28;20097;-83
2024/01/16 10:36:25;;;;;;;6.63;2.67;;;;;;;;;;4965029;28;20080;-83
2024/01/16 10:38:57;;;;;;;4.80;2.53;;;;;;;;;;4984086;28;20034;-84
2024/01/16 10:41:26;;;;;;;5.43;2.22;;;;;;;;;;4985443;28;20039;-84
2024/01/16 10:44:08;;;;;;;3.72;2.20;;;;;;;;;;4969506;28;20034;-85
2024/01/16 10:46:35;;;;;;;3.53;2.00;;;;;;;;;;4984473;28;20031;-83
2024/01/16 10:49:03;;;;;;;4.60;2.10;;;;;;;;;;4986297;28;20041;-84
2024/01/16 10:51:29;;;;;;;3.92;1.98;;;;;;;;;;4980919;28;20045;-84
2024/01/16 10:54:00;;;;;;;4.75;1.98;;;;;;;;;;4979231;28;20022;-83
2024/01/16 10:56:27;;;;;;;6.07;2.30;;;;;;;;;;4980171;28;20041;-84
2024/01/16 10:59:20;;;;;;;4.45;2.08;;;;;;;;;;4987117;28;20048;-86
2024/01/16 11:01:51;;;;;;;3.77;2.20;;;;;;;;;;4987513;28;20419;-85
2024/01/16 11:04:18;;;;;;;4.88;2.50;;;;;;;;;;4983967;28;20031;-86
2024/01/16 11:06:44;;;;;;;7.55;2.55;;;;;;;;;;4983460;28;20026;-85
2024/01/16 11:09:15;;;;;;;4.10;2.20;;;;;;;;;;4983297;28;20113;-86
2024/01/16 11:11:43;;;;;;;4.55;2.47;;;;;;;;;;4978330;28;20125;-85
2024/01/16 11:14:09;;;;;;;5.00;2.60;;;;;;;;;;4985163;28;20400;-85
2024/01/16 11:16:35;;;;;;;5.13;2.20;;;;;;;;;;4985919;28;20105;-84
2024/01/16 11:19:04;;;;;;;4.75;2.40;;;;;;;;;;4981750;28;20030;-85
2024/01/16 11:21:29;;;;;;;4.20;2.50;;;;;;;;;;4981923;28;20026;-86
2024/01/16 11:23:55;;;;;;;4.85;2.25;;;;;;;;;;4965948;28;20576;-85
2024/01/16 11:26:33;;;;;;;3.38;1.80;;;;;;;;;;4982466;28;20109;-85
2024/01/16 11:29:00;;;;;;;6.30;2.17;;;;;;;;;;4965495;28;20034;-85
2024/01/16 11:31:34;;;;;;;4.45;2.28;;;;;;;;;;4963264;28;20031;-84
2024/01/16 11:34:01;;;;;;;4.57;2.30;;;;;;;;;;4975388;28;20034;-84
2024/01/16 11:36:58;;;;;;;12.52;4.00;;;;;;;;;;4977336;28;20096;-84
2024/01/16 11:39:25;;;;;;;11.40;4.68;;;;;;;;;;4975140;28;20134;-85
2024/01/16 11:41:52;;;;;;;7.25;3.17;;;;;;;;;;4983279;28;20038;-85
2024/01/16 11:44:50;;;;;;;16.02;7.20;;;;;;;;;;4966918;28;20058;-85
2024/01/16 11:47:20;;;;;;;9.23;4.40;;;;;;;;;;4975052;28;20098;-84
2024/01/16 11:49:48;;;;;;;5.85;3.15;;;;;;;;;;4983137;28;20505;-85
2024/01/16 11:52:14;;;;;;;6.57;3.78;;;;;;;;;;4984251;28;20039;-85
2024/01/16 11:54:41;;;;;;;6.50;2.97;;;;;;;;;;4960414;28;20034;-85
2024/01/16 11:57:28;;;;;;;7.45;3.70;;;;;;;;;;4991349;28;20042;-84
2024/01/16 12:00:15;;;;;;;12.57;6.88;;;;;;;;;;4978706;28;20066;-84
2024/01/16 12:02:53;;;;;;;6.30;3.83;;;;;;;;;;4986425;28;20424;-85
2024/01/16 12:05:22;;;;;;;7.03;3.70;;;;;;;;;;4960314;28;20038;-85
2024/01/16 12:07:50;;;;;;;6.28;3.20;;;;;;;;;;4967656;28;20042;-84
2024/01/16 12:10:19;;;;;;;12.70;4.35;;;;;;;;;;4979668;28;20059;-84
2024/01/16 12:12:46;;;;;;;6.60;3.67;;;;;;;;;;4964468;28;20509;-85
2024/01/16 12:15:19;;;;;;;9.25;3.63;;;;;;;;;;4978902;28;20546;-85
2024/01/16 12:17:56;;;;;;;8.13;3.20;;;;;;;;;;4974846;28;20559;-84
2024/01/16 12:20:22;;;;;;;4.82;2.72;;;;;;;;;;4980353;28;20030;-85
2024/01/16 12:23:14;;;;;;;4.90;2.67;;;;;;;;;;4984983;28;20037;-84
2024/01/16 12:25:39;;;;;;;6.97;2.40;;;;;;;;;;4982493;28;20038;-83
2024/01/16 12:28:06;;;;;;;6.30;2.70;;;;;;;;;;4971316;28;20599;-84
2024/01/16 12:30:32;;;;;;;5.85;2.78;;;;;;;;;;4976620;28;20057;-84
2024/01/16 12:33:08;;;;;;;4.28;2.30;;;;;;;;;;4962652;28;20038;-85
2024/01/16 12:35:34;;;;;;;7.15;2.20;;;;;;;;;;4981435;28;20063;-85
2024/01/16 12:38:01;;;;;;;3.65;2.30;;;;;;;;;;4976549;28;20098;-87
2024/01/16 12:40:28;;;;;;;4.63;2.25;;;;;;;;;;4983533;28;20042;-86
2024/01/16 12:42:53;;;;;;;7.15;3.10;;;;;;;;;;4985467;28;20033;-83
2024/01/16 12:45:21;;;;;;;5.55;3.22;;;;;;;;;;4982085;28;20053;-84
2024/01/16 12:47:53;;;;;;;4.72;2.30;;;;;;;;;;4963927;28;20445;-85
2024/01/16 12:50:20;;;;;;;4.35;2.40;;;;;;;;;;4983582;28;20055;-84
2024/01/16 12:52:46;;;;;;;4.38;2.33;;;;;;;;;;4984625;28;20023;-85
2024/01/16 12:55:13;;;;;;;6.13;3.40;;;;;;;;;;4982447;28;20090;-85
2024/01/16 12:57:39;;;;;;;8.82;4.28;;;;;;;;;;4983951;28;20114;-86
2024/01/16 13:00:26;;;;;;;3.63;2.38;;;;;;;;;;4980391;28;20125;-87
2024/01/16 13:02:52;;;;;;;3.67;2.10;;;;;;;;;;4980767;28;20447;-86
2024/01/16 13:05:18;;;;;;;5.05;2.58;;;;;;;;;;4986048;28;20105;-85
2024/01/16 13:07:44;;;;;;;5.43;2.10;;;;;;;;;;4960880;28;20069;-82
2024/01/16 13:10:18;;;;;;;5.05;2.20;;;;;;;;;;4966814;28;20065;-84
2024/01/16 13:12:44;;;;;;;15.60;7.25;;;;;;;;;;4980633;28;20455;-84
2024/01/16 13:15:11;;;;;;;12.48;5.47;;;;;;;;;;4976640;28;20807;-84
2024/01/16 13:17:36;;;;;;;12.00;4.68;;;;;;;;;;4983584;28;20030;-82
2024/01/16 13:20:04;;;;;;;5.05;2.65;;;;;;;;;;4978325;28;20038;-83
2024/01/16 13:22:29;;;;;;;7.57;3.97;;;;;;;;;;4977511;28;20046;-85
2024/01/16 13:24:55;;;;;;;6.70;3.30;;;;;;;;;;4982060;28;20108;-84
2024/01/16 13:27:22;;;;;;;11.57;4.65;;;;;;;;;;4982431;28;20046;-84
2024/01/16 13:29:47;;;;;;;33.85;11.60;;;;;;;;;;4981194;28;20034;-84
2024/01/16 13:32:13;;;;;;;23.35;8.43;;;;;;;;;;4961470;28;20035;-84
2024/01/16 13:34:39;;;;;;;9.35;3.85;;;;;;;;;;4982229;28;20066;-83
2024/01/16 13:37:04;;;;;;;7.78;3.10;;;;;;;;;;4978724;28;20030;-82
2024/01/16 13:39:36;;;;;;;6.00;2.90;;;;;;;;;;4982592;28;20034;-85
2024/01/16 13:42:05;;;;;;;14.30;5.90;;;;;;;;;;4988033;28;20038;-85
2024/01/16 13:44:31;;;;;;;9.95;4.90;;;;;;;;;;4987691;28;20057;-84
2024/01/16 13:46:56;;;;;;;7.95;3.42;;;;;;;;;;4985664;28;20421;-84
2024/01/16 13:49:21;;;;;;;7.13;3.33;;;;;;;;;;4988990;28;20096;-85
2024/01/16 13:51:47;;;;;;;7.03;3.00;;;;;;;;;;4984100;28;20473;-84
2024/01/16 13:54:12;;;;;;;9.40;3.40;;;;;;;;;;4985561;28;20042;-84
2024/01/16 13:56:39;;;;;;;7.35;4.13;;;;;;;;;;4973298;28;20028;-83
2024/01/16 13:59:04;;;;;;;8.23;4.47;;;;;;;;;;4974697;28;20083;-83
2024/01/16 14:01:30;;;;;;;8.48;3.75;;;;;;;;;;4987696;28;20117;-83
2024/01/16 14:03:55;;;;;;;9.52;3.83;;;;;;;;;;4990525;28;20048;-83
2024/01/16 14:06:21;;;;;;;5.57;3.05;;;;;;;;;;4987058;28;20058;-85
2024/01/16 14:08:46;;;;;;;7.18;4.40;;;;;;;;;;4988676;28;20038;-84
2024/01/16 14:11:11;;;;;;;8.30;4.35;;;;;;;;;;4988451;28;20039;-85
2024/01/16 14:13:37;;;;;;;8.20;4.32;;;;;;;;;;4983903;28;20039;-84
2024/01/16 14:16:03;;;;;;;9.65;4.20;;;;;;;;;;4989852;28;20554;-83
2024/01/16 14:18:28;;;;;;;11.80;4.97;;;;;;;;;;4971330;28;20068;-84
2024/01/16 14:20:54;;;;;;;9.15;4.18;;;;;;;;;;4989834;28;20038;-83
2024/01/16 14:23:20;;;;;;;5.95;3.22;;;;;;;;;;4974402;28;20476;-84
2024/01/16 14:25:45;;;;;;;7.57;3.22;;;;;;;;;;4956660;28;20118;-84
2024/01/16 14:28:12;;;;;;;8.55;3.45;;;;;;;;;;4989502;28;20704;-84
2024/01/16 14:30:38;;;;;;;7.80;4.07;;;;;;;;;;4990035;28;20042;-83
2024/01/16 14:33:06;;;;;;;7.53;3.67;;;;;;;;;;4990786;28;20061;-83
2024/01/16 14:35:32;;;;;;;11.35;4.30;;;;;;;;;;4987645;28;20038;-85
2024/01/16 14:37:58;;;;;;;8.50;4.15;;;;;;;;;;4970569;28;20169;-84
2024/01/16 14:40:27;;;;;;;10.05;5.28;;;;;;;;;;4984906;28;20059;-84